Time;durP1;ratioP1;P1;durP2;ratioP2;P2;SDS_P1;SDS_P2;PMS_P1;PMS_P2;Temp;Humidity;BMP_temperature;BMP_pressure;BME280_temperature;BME280_humidity;BME280_pressure;Samples;Min_cycle;Max_cycle;Signal;HPM_P1;HPM_P2
2023/05/24 00:01:41;;;;;;;12.67;3.07;;;9.10;99.90;;;;;;5048121;28;20182;-83
2023/05/24 00:04:07;;;;;;;13.30;3.13;;;9.10;99.90;;;;;;5032288;28;20541;-84
2023/05/24 00:06:36;;;;;;;14.57;3.38;;;9.20;99.90;;;;;;5032386;28;20221;-83
2023/05/24 00:09:05;;;;;;;17.90;3.28;;;9.10;99.90;;;;;;5468159;22;20239;-83
2023/05/24 00:11:31;;;;;;;15.73;3.35;;;9.10;99.90;;;;;;5033803;28;20171;-82
2023/05/24 00:13:57;;;;;;;16.25;3.45;;;9.00;99.90;;;;;;5032507;28;20948;-83
2023/05/24 00:16:23;;;;;;;12.10;3.00;;;9.00;99.90;;;;;;5032532;28;20178;-83
2023/05/24 00:18:49;;;;;;;20.75;3.63;;;9.00;99.90;;;;;;5033567;28;20280;-83
2023/05/24 00:21:15;;;;;;;19.17;3.47;;;9.00;99.90;;;;;;5032407;28;20189;-83
2023/05/24 00:23:42;;;;;;;15.85;3.35;;;8.90;99.90;;;;;;5033405;28;20559;-84
2023/05/24 00:26:08;;;;;;;13.63;2.63;;;8.90;99.90;;;;;;5033643;28;20166;-82
2023/05/24 00:28:34;;;;;;;13.30;3.47;;;8.90;99.90;;;;;;5034572;28;20175;-82
2023/05/24 00:31:00;;;;;;;13.23;3.33;;;8.90;99.90;;;;;;5012400;28;20187;-83
2023/05/24 00:33:27;;;;;;;21.20;3.92;;;8.90;99.90;;;;;;5013572;28;20160;-83
2023/05/24 00:35:57;;;;;;;18.27;3.23;;;8.80;99.90;;;;;;5012485;28;20618;-82
2023/05/24 00:38:24;;;;;;;14.33;3.03;;;8.80;99.90;;;;;;5013776;28;20302;-84
2023/05/24 00:40:51;;;;;;;16.90;3.60;;;8.70;99.90;;;;;;5012985;28;20176;-84
2023/05/24 00:43:17;;;;;;;14.30;2.87;;;8.70;99.90;;;;;;5013671;28;20668;-83
2023/05/24 00:45:44;;;;;;;14.13;3.07;;;8.70;99.90;;;;;;5012252;28;20183;-82
2023/05/24 00:48:10;;;;;;;13.17;3.07;;;8.60;99.90;;;;;;5013741;28;20195;-85
2023/05/24 00:50:38;;;;;;;17.40;3.23;;;8.70;99.90;;;;;;5012351;28;20180;-84
2023/05/24 00:53:05;;;;;;;16.27;3.47;;;8.60;99.90;;;;;;5013642;28;20174;-82
2023/05/24 00:55:34;;;;;;;17.50;3.60;;;8.60;99.90;;;;;;5013494;28;20242;-82
2023/05/24 00:58:00;;;;;;;15.35;3.25;;;8.60;99.90;;;;;;5013202;28;20207;-84
2023/05/24 01:00:28;;;;;;;17.60;3.50;;;8.60;99.90;;;;;;5013433;28;20523;-82
2023/05/24 01:02:53;;;;;;;16.13;3.63;;;8.60;99.90;;;;;;5012401;28;20564;-84
2023/05/24 01:05:20;;;;;;;18.13;3.93;;;8.60;99.90;;;;;;5015299;28;20254;-83
2023/05/24 01:07:48;;;;;;;16.77;3.30;;;8.60;99.90;;;;;;5017388;28;20205;-84
2023/05/24 01:10:50;;;;;;;19.33;4.03;;;8.60;99.90;;;;;;5032041;28;20238;-83
2023/05/24 01:13:32;;;;;;;17.87;3.87;;;8.60;99.90;;;;;;5015879;28;20178;-83
2023/05/24 01:16:10;;;;;;;17.10;4.03;;;8.60;99.90;;;;;;5017233;28;20175;-83
2023/05/24 01:18:51;;;;;;;19.67;4.27;;;8.60;99.90;;;;;;5015415;28;20238;-82
2023/05/24 01:21:37;;;;;;;17.23;4.22;;;8.60;99.90;;;;;;5016878;28;20163;-83
2023/05/24 01:24:22;;;;;;;23.40;4.47;;;8.60;99.90;;;;;;5031836;28;20624;-83
2023/05/24 01:27:13;;;;;;;22.77;3.97;;;8.50;99.90;;;;;;5017215;28;20633;-82
2023/05/24 01:29:40;;;;;;;22.47;3.63;;;8.50;99.90;;;;;;5016809;28;20171;-82
2023/05/24 01:32:06;;;;;;;12.63;3.70;;;8.50;99.90;;;;;;5016981;28;20210;-83
2023/05/24 01:34:32;;;;;;;21.63;4.00;;;8.50;99.90;;;;;;5016893;28;20213;-83
2023/05/24 01:36:58;;;;;;;18.27;3.80;;;8.50;99.90;;;;;;5016731;28;20840;-83
2023/05/24 01:39:28;;;;;;;16.77;3.40;;;8.60;99.90;;;;;;5016350;28;20183;-82
2023/05/24 01:42:16;;;;;;;16.20;3.70;;;8.60;99.90;;;;;;5014948;28;20578;-82
2023/05/24 01:45:00;;;;;;;18.67;3.63;;;8.50;99.90;;;;;;5016706;28;20198;-83
2023/05/24 01:47:40;;;;;;;21.20;3.73;;;8.50;99.90;;;;;;5016611;28;20592;-84
2023/05/24 01:50:23;;;;;;;18.23;4.37;;;8.40;99.90;;;;;;5016248;28;20594;-84
2023/05/24 01:52:52;;;;;;;22.20;4.73;;;8.40;99.90;;;;;;5016569;28;20501;-84
2023/05/24 01:55:19;;;;;;;16.63;4.07;;;8.40;99.90;;;;;;5014976;28;20171;-83
2023/05/24 01:57:47;;;;;;;19.93;4.30;;;8.40;99.90;;;;;;5015275;28;20528;-83
2023/05/24 02:00:15;;;;;;;16.50;3.43;;;8.40;99.90;;;;;;5016335;28;20535;-83
2023/05/24 02:02:41;;;;;;;22.80;4.87;;;8.40;99.90;;;;;;5014662;28;20179;-84
2023/05/24 02:05:08;;;;;;;15.17;3.67;;;8.30;99.90;;;;;;5016300;28;20214;-83
2023/05/24 02:07:33;;;;;;;18.63;4.10;;;8.40;99.90;;;;;;5016240;28;20179;-82
2023/05/24 02:09:59;;;;;;;20.00;4.73;;;8.30;99.90;;;;;;5015680;28;20227;-83
2023/05/24 02:12:25;;;;;;;16.07;3.87;;;8.20;99.90;;;;;;5031228;28;20211;-83
2023/05/24 02:14:50;;;;;;;28.90;4.50;;;8.20;99.90;;;;;;5015609;28;20617;-82
2023/05/24 02:17:17;;;;;;;16.33;3.70;;;8.20;99.90;;;;;;5015170;28;20207;-82
2023/05/24 02:19:43;;;;;;;25.93;4.60;;;8.20;99.90;;;;;;5015698;28;20179;-83
2023/05/24 02:22:08;;;;;;;18.73;3.67;;;8.20;99.90;;;;;;5015943;28;20179;-82
2023/05/24 02:24:35;;;;;;;20.77;3.80;;;8.20;99.90;;;;;;5015621;28;20164;-83
2023/05/24 02:27:01;;;;;;;15.27;4.00;;;8.20;99.90;;;;;;5015732;28;20179;-82
2023/05/24 02:29:27;;;;;;;21.77;4.57;;;8.20;99.90;;;;;;5015730;28;20245;-82
2023/05/24 02:31:55;;;;;;;19.03;3.73;;;8.20;99.90;;;;;;5015649;28;20168;-83
2023/05/24 02:34:22;;;;;;;22.07;4.47;;;8.20;99.90;;;;;;5015661;28;20602;-83
2023/05/24 02:36:48;;;;;;;21.50;4.37;;;8.20;99.90;;;;;;5015630;28;20172;-84
2023/05/24 02:39:14;;;;;;;21.60;4.37;;;8.20;99.90;;;;;;5015278;28;20187;-83
2023/05/24 02:41:40;;;;;;;27.90;4.37;;;8.20;99.90;;;;;;5014295;28;20182;-83
2023/05/24 02:44:06;;;;;;;19.53;4.90;;;8.20;99.90;;;;;;5015538;28;20178;-83
2023/05/24 02:46:31;;;;;;;19.07;4.60;;;8.20;99.90;;;;;;5014053;28;20282;-83
2023/05/24 02:48:58;;;;;;;21.93;4.57;;;8.10;99.90;;;;;;5014165;28;20271;-82
2023/05/24 02:51:23;;;;;;;26.77;5.17;;;8.10;99.90;;;;;;5013771;28;20629;-82
2023/05/24 02:53:49;;;;;;;22.03;4.70;;;8.10;99.90;;;;;;5015227;28;20168;-82
2023/05/24 02:56:18;;;;;;;32.13;4.97;;;8.10;99.90;;;;;;5015137;28;20175;-83
2023/05/24 02:58:43;;;;;;;25.23;4.90;;;8.10;99.90;;;;;;5030490;28;20215;-84
2023/05/24 03:01:11;;;;;;;13.57;4.40;;;8.10;99.90;;;;;;5013680;28;20259;-83
2023/05/24 03:03:38;;;;;;;20.60;4.53;;;8.10;99.90;;;;;;5015113;28;20250;-82
2023/05/24 03:06:05;;;;;;;19.57;5.30;;;8.10;99.90;;;;;;5013894;28;20175;-83
2023/05/24 03:08:36;;;;;;;25.00;5.53;;;8.10;99.90;;;;;;5014951;28;20209;-83
2023/05/24 03:11:02;;;;;;;25.03;5.37;;;8.10;99.90;;;;;;5013598;28;20179;-84
2023/05/24 03:13:28;;;;;;;20.63;4.17;;;8.10;99.90;;;;;;5014801;28;20202;-83
2023/05/24 03:15:54;;;;;;;27.90;5.77;;;8.10;99.90;;;;;;5029929;28;20629;-83
2023/05/24 03:18:19;;;;;;;25.93;5.47;;;8.00;99.90;;;;;;5014897;28;20207;-83
2023/05/24 03:20:45;;;;;;;27.30;5.10;;;8.00;99.90;;;;;;5013466;28;20205;-84
2023/05/24 03:23:11;;;;;;;24.40;5.30;;;8.10;99.90;;;;;;5013576;28;20270;-82
2023/05/24 03:25:37;;;;;;;22.43;4.13;;;8.00;99.90;;;;;;5014686;28;20152;-83
2023/05/24 03:28:03;;;;;;;22.73;4.43;;;8.00;99.90;;;;;;5012746;28;20295;-83
2023/05/24 03:30:28;;;;;;;21.53;5.33;;;8.00;99.90;;;;;;5014677;28;20191;-83
2023/05/24 03:32:54;;;;;;;22.23;5.23;;;8.00;99.90;;;;;;5013252;28;20183;-83
2023/05/24 03:35:20;;;;;;;21.17;5.57;;;8.00;99.90;;;;;;5014740;28;20617;-82
2023/05/24 03:37:46;;;;;;;25.07;5.13;;;8.00;99.90;;;;;;5013199;28;20207;-82
2023/05/24 03:40:12;;;;;;;22.63;4.67;;;8.00;99.90;;;;;;5012930;28;20180;-82
2023/05/24 03:42:38;;;;;;;17.43;4.13;;;8.00;99.90;;;;;;5014228;28;20172;-83
2023/05/24 03:45:05;;;;;;;17.40;4.83;;;8.00;99.90;;;;;;5013076;28;20179;-83
2023/05/24 03:47:30;;;;;;;17.43;4.90;;;8.00;99.90;;;;;;5013189;28;20211;-82
2023/05/24 03:49:57;;;;;;;27.47;5.43;;;8.00;99.90;;;;;;5014312;28;20249;-84
2023/05/24 03:52:23;;;;;;;26.90;5.23;;;8.00;99.90;;;;;;5013042;28;20179;-83
2023/05/24 03:54:48;;;;;;;26.70;5.60;;;8.00;99.90;;;;;;5012918;28;20171;-84
2023/05/24 03:57:14;;;;;;;23.20;5.73;;;8.00;99.90;;;;;;5012858;28;20211;-82
2023/05/24 03:59:40;;;;;;;27.53;6.00;;;8.00;99.90;;;;;;5014073;28;20175;-81
2023/05/24 04:02:06;;;;;;;24.13;5.57;;;8.10;99.90;;;;;;5013924;28;20217;-83
2023/05/24 04:04:32;;;;;;;26.17;5.43;;;8.10;99.90;;;;;;5014201;28;20177;-83
2023/05/24 04:06:58;;;;;;;24.00;5.60;;;8.20;99.90;;;;;;5014223;28;20244;-83
2023/05/24 04:09:23;;;;;;;27.97;5.67;;;8.20;99.90;;;;;;5012272;28;20242;-82
2023/05/24 04:11:49;;;;;;;22.50;5.17;;;8.20;99.90;;;;;;5012584;28;20183;-82
2023/05/24 04:14:15;;;;;;;15.03;4.27;;;8.20;99.90;;;;;;5014183;28;20174;-83
2023/05/24 04:16:43;;;;;;;21.83;5.13;;;8.30;99.90;;;;;;5013971;28;20523;-82
2023/05/24 04:19:10;;;;;;;21.47;4.73;;;8.30;99.90;;;;;;5013889;28;20283;-81
2023/05/24 04:21:37;;;;;;;24.73;4.60;;;8.30;99.90;;;;;;5012741;28;20207;-81
2023/05/24 04:24:04;;;;;;;25.03;4.73;;;8.30;99.90;;;;;;5013480;28;20175;-82
2023/05/24 04:26:30;;;;;;;26.07;5.20;;;8.40;99.90;;;;;;5012020;28;20210;-81
2023/05/24 04:28:56;;;;;;;28.83;5.53;;;8.40;99.90;;;;;;5013764;28;20176;-82
2023/05/24 04:31:22;;;;;;;29.60;5.50;;;8.40;99.90;;;;;;5012913;28;20213;-82
2023/05/24 04:33:48;;;;;;;21.87;5.37;;;8.40;99.90;;;;;;5013846;28;20302;-82
2023/05/24 04:36:16;;;;;;;25.40;5.23;;;8.40;99.90;;;;;;5012700;28;20309;-82
2023/05/24 04:38:44;;;;;;;26.47;5.90;;;8.40;99.90;;;;;;5014210;28;20234;-83
2023/05/24 04:41:11;;;;;;;26.90;5.50;;;8.40;99.90;;;;;;5015713;28;20593;-81
2023/05/24 04:43:37;;;;;;;27.67;5.17;;;8.50;99.90;;;;;;5017330;28;20174;-82
2023/05/24 04:46:03;;;;;;;24.57;5.87;;;8.50;99.90;;;;;;5016168;28;20647;-83
2023/05/24 04:48:29;;;;;;;24.37;5.33;;;8.50;99.90;;;;;;5017738;28;20179;-82
2023/05/24 04:50:57;;;;;;;27.73;5.47;;;8.50;99.90;;;;;;5017615;28;20614;-83
2023/05/24 04:53:23;;;;;;;24.80;6.23;;;8.60;99.90;;;;;;5017373;28;20199;-84
2023/05/24 04:55:50;;;;;;;25.10;5.87;;;8.60;99.90;;;;;;5017118;28;20175;-82
2023/05/24 04:58:16;;;;;;;21.63;5.50;;;8.60;99.90;;;;;;5016238;28;20218;-84
2023/05/24 05:00:43;;;;;;;21.63;4.93;;;8.70;99.90;;;;;;5017405;28;20179;-81
2023/05/24 05:03:09;;;;;;;21.27;5.00;;;8.80;99.90;;;;;;5017223;28;20184;-83
2023/05/24 05:05:36;;;;;;;22.13;4.93;;;8.90;99.90;;;;;;5017165;28;20602;-83
2023/05/24 05:08:02;;;;;;;19.73;4.75;;;9.00;99.90;;;;;;5017318;28;20230;-82
2023/05/24 05:10:28;;;;;;;20.70;5.43;;;9.10;99.90;;;;;;5016826;28;20296;-83
2023/05/24 05:12:54;;;;;;;24.63;5.63;;;9.10;99.90;;;;;;5015848;28;20179;-83
2023/05/24 05:15:22;;;;;;;25.53;5.80;;;9.20;99.90;;;;;;5015956;28;20190;-84
2023/05/24 05:17:48;;;;;;;19.85;5.55;;;9.20;99.90;;;;;;5016190;28;20736;-84
2023/05/24 05:20:14;;;;;;;21.15;5.47;;;9.30;99.90;;;;;;5015595;28;20179;-83
2023/05/24 05:22:49;;;;;;;17.48;5.03;;;9.30;99.90;;;;;;5015445;28;20523;-84
2023/05/24 05:25:15;;;;;;;22.70;6.28;;;9.30;99.90;;;;;;5015988;28;20171;-85
2023/05/24 05:27:41;;;;;;;26.30;5.43;;;9.40;99.90;;;;;;5015803;28;20183;-85
2023/05/24 05:30:07;;;;;;;26.88;5.72;;;9.40;99.90;;;;;;5015875;28;20179;-86
2023/05/24 05:32:33;;;;;;;27.90;5.80;;;9.50;99.90;;;;;;5016510;28;20175;-84
2023/05/24 05:34:59;;;;;;;19.58;6.05;;;9.50;99.90;;;;;;5015370;28;20180;-83
2023/05/24 05:37:25;;;;;;;27.23;6.13;;;9.60;99.90;;;;;;5016602;28;20213;-84
2023/05/24 05:39:50;;;;;;;22.58;5.68;;;9.60;99.90;;;;;;5016867;28;20676;-85
2023/05/24 05:42:16;;;;;;;23.33;5.68;;;9.70;99.90;;;;;;5016738;28;20171;-84
2023/05/24 05:44:43;;;;;;;24.55;5.68;;;9.80;99.90;;;;;;5015463;28;20172;-83
2023/05/24 05:47:09;;;;;;;27.98;5.68;;;9.70;99.90;;;;;;5015580;28;20539;-84
2023/05/24 05:49:35;;;;;;;23.13;5.60;;;9.70;99.90;;;;;;5014909;28;20187;-82
2023/05/24 05:52:02;;;;;;;28.95;5.70;;;9.70;99.90;;;;;;5015691;28;20179;-84
2023/05/24 05:54:27;;;;;;;28.27;5.53;;;9.70;99.90;;;;;;5015296;28;20210;-83
2023/05/24 05:56:54;;;;;;;26.02;5.97;;;9.70;99.90;;;;;;5016326;28;20191;-82
2023/05/24 05:59:20;;;;;;;22.35;5.78;;;9.70;99.90;;;;;;5016461;28;20171;-84
2023/05/24 06:01:47;;;;;;;23.60;5.60;;;9.70;99.90;;;;;;5016279;28;20179;-85
2023/05/24 06:04:14;;;;;;;28.70;6.37;;;9.70;99.90;;;;;;5031013;28;20186;-83
2023/05/24 06:06:40;;;;;;;28.58;5.47;;;9.70;99.90;;;;;;5016285;28;20171;-84
2023/05/24 06:09:06;;;;;;;22.00;5.57;;;9.70;99.90;;;;;;5014710;28;20589;-84
2023/05/24 06:11:32;;;;;;;25.52;6.22;;;9.80;99.90;;;;;;5016229;28;20171;-83
2023/05/24 06:13:57;;;;;;;23.85;5.50;;;9.80;99.90;;;;;;5016191;28;20262;-84
2023/05/24 06:16:23;;;;;;;22.88;5.70;;;9.80;99.90;;;;;;5031373;28;20179;-82
2023/05/24 06:18:49;;;;;;;24.23;5.45;;;9.90;99.90;;;;;;5015523;28;20203;-83
2023/05/24 06:21:15;;;;;;;22.50;5.47;;;9.90;99.90;;;;;;5015989;28;20665;-84
2023/05/24 06:23:41;;;;;;;25.73;5.53;;;10.00;99.90;;;;;;5014732;28;20790;-82
2023/05/24 06:26:11;;;;;;;27.98;5.57;;;10.00;99.90;;;;;;5014773;28;20177;-82
2023/05/24 06:28:37;;;;;;;23.70;6.15;;;10.00;99.90;;;;;;5014648;28;20249;-84
2023/05/24 06:31:03;;;;;;;18.73;4.70;;;10.00;99.90;;;;;;5014643;28;20571;-82
2023/05/24 06:33:33;;;;;;;32.63;6.20;;;10.10;99.90;;;;;;5015287;28;20206;-81
2023/05/24 06:35:59;;;;;;;26.40;5.78;;;10.20;99.90;;;;;;5015825;28;20175;-82
2023/05/24 06:38:26;;;;;;;25.42;5.63;;;10.20;99.90;;;;;;5015707;28;20206;-82
2023/05/24 06:40:52;;;;;;;26.23;6.22;;;10.20;99.90;;;;;;5014336;28;20248;-84
2023/05/24 06:43:19;;;;;;;26.42;5.72;;;10.20;99.90;;;;;;5015448;28;20175;-84
2023/05/24 06:45:45;;;;;;;19.65;5.28;;;10.30;99.90;;;;;;5014400;28;20258;-82
2023/05/24 06:48:11;;;;;;;23.25;5.93;;;10.30;99.90;;;;;;5014988;28;20286;-82
2023/05/24 06:50:37;;;;;;;19.55;5.35;;;10.40;99.90;;;;;;5015289;28;20512;-82
2023/05/24 06:53:03;;;;;;;26.73;6.07;;;10.40;99.90;;;;;;5015243;28;20617;-82
2023/05/24 06:55:28;;;;;;;27.15;5.55;;;10.50;99.90;;;;;;5015393;28;20206;-82
2023/05/24 06:57:54;;;;;;;22.45;5.13;;;10.50;99.90;;;;;;5014100;28;20215;-83
2023/05/24 07:00:21;;;;;;;27.00;5.60;;;10.60;99.90;;;;;;5014311;28;20175;-83
2023/05/24 07:02:46;;;;;;;25.40;5.90;;;10.60;99.90;;;;;;5012714;28;20187;-83
2023/05/24 07:05:12;;;;;;;22.58;5.30;;;10.60;99.90;;;;;;5014952;28;20190;-82
2023/05/24 07:07:42;;;;;;;27.40;6.00;;;10.70;99.90;;;;;;5015132;28;20171;-82
2023/05/24 07:10:09;;;;;;;27.15;5.55;;;10.70;99.90;;;;;;5014940;28;20230;-84
2023/05/24 07:12:36;;;;;;;21.25;5.28;;;10.90;99.90;;;;;;5013775;28;21054;-83
2023/05/24 07:15:07;;;;;;;18.35;5.20;;;10.90;99.90;;;;;;5014895;28;20206;-84
2023/05/24 07:17:33;;;;;;;24.00;5.72;;;10.90;99.90;;;;;;5014795;28;20615;-82
2023/05/24 07:20:00;;;;;;;21.80;5.43;;;10.90;99.90;;;;;;5014708;28;20263;-83
2023/05/24 07:22:28;;;;;;;19.00;5.10;;;11.00;99.90;;;;;;5013720;28;20552;-83
2023/05/24 07:25:08;;;;;;;27.25;5.85;;;11.00;99.90;;;;;;5091450;27;20538;-85
2023/05/24 07:27:33;;;;;;;24.45;6.30;;;11.10;99.90;;;;;;5107231;28;20272;-88
2023/05/24 07:29:59;;;;;;;20.60;5.80;;;11.20;99.90;;;;;;5106924;28;20211;-84
2023/05/24 07:32:25;;;;;;;22.83;5.22;;;11.20;99.90;;;;;;5091143;28;20199;-85
2023/05/24 07:34:51;;;;;;;17.20;5.07;;;11.20;99.90;;;;;;5106513;28;20169;-84
2023/05/24 07:37:17;;;;;;;20.85;5.25;;;11.30;99.90;;;;;;5091338;28;20175;-85
2023/05/24 07:39:42;;;;;;;18.88;5.47;;;11.30;99.90;;;;;;5106794;28;20623;-86
2023/05/24 07:42:08;;;;;;;19.00;5.07;;;11.40;99.90;;;;;;5106529;28;20191;-84
2023/05/24 07:44:34;;;;;;;23.13;5.72;;;11.50;99.90;;;;;;5106439;28;20219;-86
2023/05/24 07:47:01;;;;;;;21.45;4.57;;;11.60;99.90;;;;;;5090989;28;20666;-86
2023/05/24 07:49:27;;;;;;;23.48;4.57;;;11.60;99.90;;;;;;5106062;28;20624;-85
2023/05/24 07:51:56;;;;;;;21.02;4.85;;;11.70;99.90;;;;;;5090758;28;20169;-85
2023/05/24 07:54:24;;;;;;;18.95;5.18;;;11.70;99.90;;;;;;5106535;28;20177;-87
2023/05/24 07:56:50;;;;;;;21.17;4.45;;;11.70;99.90;;;;;;5090776;28;20165;-86
2023/05/24 07:59:16;;;;;;;17.98;5.05;;;11.70;99.90;;;;;;5106346;28;20250;-85
2023/05/24 08:01:42;;;;;;;23.75;4.95;;;11.70;99.90;;;;;;5090609;28;20611;-85
2023/05/24 08:04:09;;;;;;;22.60;5.20;;;11.70;99.90;;;;;;5090262;28;20295;-84
2023/05/24 08:06:35;;;;;;;23.60;5.05;;;11.70;99.90;;;;;;5106465;28;20176;-85
2023/05/24 08:09:03;;;;;;;18.88;4.80;;;11.80;99.90;;;;;;5106125;28;20203;-83
2023/05/24 08:11:29;;;;;;;22.58;4.85;;;11.90;99.90;;;;;;5105856;28;20657;-84
2023/05/24 08:13:55;;;;;;;22.90;4.47;;;11.90;99.90;;;;;;5090181;28;20177;-83
2023/05/24 08:16:20;;;;;;;15.35;4.57;;;12.10;99.90;;;;;;5106234;28;20195;-86
2023/05/24 08:18:46;;;;;;;15.55;4.60;;;12.20;99.90;;;;;;5105218;28;20517;-86
2023/05/24 08:21:12;;;;;;;21.88;5.25;;;12.20;99.90;;;;;;5090375;28;20169;-85
2023/05/24 08:23:38;;;;;;;16.83;3.88;;;12.10;99.90;;;;;;5089794;28;20231;-84
2023/05/24 08:26:03;;;;;;;17.40;4.40;;;12.10;99.90;;;;;;5090051;28;20260;-85
2023/05/24 08:28:29;;;;;;;15.75;4.82;;;12.10;99.90;;;;;;5090184;28;20176;-83
2023/05/24 08:30:56;;;;;;;18.92;4.57;;;12.10;99.90;;;;;;5105861;28;20177;-84
2023/05/24 08:33:21;;;;;;;21.98;4.35;;;12.00;99.90;;;;;;5089883;28;20165;-86
2023/05/24 08:35:50;;;;;;;14.05;3.80;;;11.90;99.90;;;;;;5079687;28;20231;-86
2023/05/24 08:38:16;;;;;;;16.98;4.45;;;11.90;99.90;;;;;;5076436;28;20614;-85
2023/05/24 08:40:42;;;;;;;9.20;3.42;;;11.80;99.90;;;;;;5076175;28;20180;-86
2023/05/24 08:43:11;;;;;;;15.50;4.03;;;11.70;99.90;;;;;;5076281;28;20209;-85
2023/05/24 08:45:38;;;;;;;22.48;4.80;;;11.70;99.90;;;;;;5092114;28;20181;-85
2023/05/24 08:48:08;;;;;;;12.52;4.05;;;11.70;99.90;;;;;;5091865;28;20196;-86
2023/05/24 08:50:34;;;;;;;15.68;3.70;;;11.80;99.90;;;;;;5076092;28;20166;-85
2023/05/24 08:53:03;;;;;;;13.98;4.05;;;11.80;99.90;;;;;;5076104;28;20222;-83
2023/05/24 08:55:34;;;;;;;14.05;4.20;;;11.80;99.90;;;;;;5076053;28;20200;-84
2023/05/24 08:58:00;;;;;;;17.55;3.90;;;11.80;99.90;;;;;;5091879;28;20188;-83
2023/05/24 09:00:26;;;;;;;15.77;4.10;;;11.80;99.90;;;;;;5076053;28;20554;-86
2023/05/24 09:02:52;;;;;;;10.70;3.25;;;11.90;99.90;;;;;;5091238;28;20181;-85
2023/05/24 09:05:20;;;;;;;16.42;3.70;;;12.00;99.90;;;;;;5091387;28;20177;-84
2023/05/24 09:07:48;;;;;;;13.55;3.80;;;12.00;99.90;;;;;;5091158;28;20176;-83
2023/05/24 09:10:14;;;;;;;14.73;3.35;;;12.10;99.90;;;;;;5075926;28;20252;-84
2023/05/24 09:12:47;;;;;;;18.80;4.32;;;12.10;99.90;;;;;;5074466;28;20676;-85
2023/05/24 09:15:13;;;;;;;14.45;3.25;;;12.20;99.90;;;;;;5076124;28;20169;-87
2023/05/24 09:17:42;;;;;;;20.38;4.47;;;12.30;99.90;;;;;;5075776;28;20161;-84
2023/05/24 09:20:08;;;;;;;15.73;4.63;;;12.30;99.90;;;;;;5075568;28;20177;-86
2023/05/24 09:22:36;;;;;;;17.13;4.57;;;12.30;99.90;;;;;;5091379;28;20530;-87
2023/05/24 09:25:05;;;;;;;13.55;4.07;;;12.20;99.90;;;;;;5091492;28;20237;-86
2023/05/24 09:27:35;;;;;;;13.07;4.05;;;12.10;99.90;;;;;;5091300;28;20544;-84
2023/05/24 09:30:02;;;;;;;18.42;4.03;;;12.00;99.90;;;;;;5075570;28;20187;-84
2023/05/24 09:32:30;;;;;;;21.88;5.00;;;12.10;99.90;;;;;;5075362;28;20173;-85
2023/05/24 09:34:57;;;;;;;14.88;4.43;;;12.30;99.90;;;;;;5090821;28;20521;-86
2023/05/24 09:37:26;;;;;;;11.88;4.07;;;12.40;99.90;;;;;;5091244;28;20215;-85
2023/05/24 09:39:52;;;;;;;12.80;3.70;;;12.50;99.90;;;;;;5075375;28;20636;-87
2023/05/24 09:42:23;;;;;;;12.68;3.75;;;12.60;99.90;;;;;;5075367;28;20658;-84
2023/05/24 09:45:02;;;;;;;16.48;4.28;;;12.60;99.90;;;;;;5075264;28;20295;-84
2023/05/24 09:47:32;;;;;;;14.43;3.85;;;12.90;99.90;;;;;;5089845;28;20192;-85
2023/05/24 09:49:59;;;;;;;12.38;4.07;;;13.10;99.90;;;;;;5075009;28;20228;-85
2023/05/24 09:52:24;;;;;;;10.73;3.67;;;13.30;99.90;;;;;;5075090;28;20169;-86
2023/05/24 09:54:51;;;;;;;14.63;4.03;;;13.30;99.90;;;;;;5090739;28;20245;-86
2023/05/24 09:57:16;;;;;;;15.85;3.92;;;13.70;99.90;;;;;;5090724;28;20574;-86
2023/05/24 09:59:43;;;;;;;10.32;2.83;;;14.10;99.90;;;;;;5073634;28;20623;-86
2023/05/24 10:02:10;;;;;;;11.05;2.90;;;14.30;99.90;;;;;;5073741;28;20515;-86
2023/05/24 10:04:37;;;;;;;10.13;2.90;;;14.40;99.90;;;;;;5073196;28;20205;-85
2023/05/24 10:07:05;;;;;;;10.98;3.28;;;14.50;99.90;;;;;;5073668;28;20173;-84
2023/05/24 10:09:34;;;;;;;7.65;3.05;;;14.40;99.90;;;;;;5073741;28;20185;-87
2023/05/24 10:12:05;;;;;;;11.40;3.55;;;14.30;99.90;;;;;;5074643;28;20168;-85
2023/05/24 10:14:33;;;;;;;9.43;3.33;;;14.00;99.90;;;;;;5073262;28;20188;-85
2023/05/24 10:16:59;;;;;;;14.65;3.17;;;13.90;99.90;;;;;;5073282;28;20181;-85
2023/05/24 10:19:25;;;;;;;10.18;3.60;;;13.70;99.90;;;;;;5073772;28;20271;-85
2023/05/24 10:21:54;;;;;;;11.05;3.60;;;13.60;99.90;;;;;;5089253;28;20192;-83
2023/05/24 10:24:24;;;;;;;9.65;3.10;;;13.60;99.90;;;;;;5072825;28;20570;-84
2023/05/24 10:26:51;;;;;;;10.18;3.35;;;13.60;99.90;;;;;;5073029;28;20173;-82
2023/05/24 10:29:32;;;;;;;12.63;3.80;;;13.90;99.90;;;;;;5074348;28;20187;-84
2023/05/24 10:31:58;;;;;;;13.35;3.50;;;13.80;99.90;;;;;;5073329;28;20173;-84
2023/05/24 10:34:25;;;;;;;11.57;3.33;;;13.70;99.90;;;;;;5073812;28;20174;-82
2023/05/24 10:36:52;;;;;;;11.05;3.30;;;13.80;99.90;;;;;;5073154;28;20222;-85
2023/05/24 10:39:21;;;;;;;10.23;3.58;;;14.20;99.90;;;;;;5072881;28;20173;-83
2023/05/24 10:41:47;;;;;;;9.02;2.88;;;14.70;99.90;;;;;;5072709;28;20176;-82
2023/05/24 10:44:17;;;;;;;14.82;3.50;;;15.20;99.90;;;;;;5074100;28;20208;-85
2023/05/24 10:47:14;;;;;;;11.32;3.15;;;15.50;99.90;;;;;;5072933;28;20181;-83
2023/05/24 10:49:56;;;;;;;10.35;2.97;;;15.40;99.90;;;;;;5071502;28;20195;-82
2023/05/24 10:52:35;;;;;;;12.60;3.08;;;15.40;99.90;;;;;;5089452;28;20227;-85
2023/05/24 10:55:06;;;;;;;16.45;4.03;;;15.30;99.90;;;;;;5072941;28;20203;-82
2023/05/24 10:57:33;;;;;;;9.00;3.63;;;14.80;99.90;;;;;;5089396;28;20165;-82
2023/05/24 11:00:24;;;;;;;10.55;3.08;;;14.70;99.90;;;;;;5089513;28;20177;-84
2023/05/24 11:02:50;;;;;;;9.90;3.10;;;14.50;99.90;;;;;;5089352;28;20181;-84
2023/05/24 11:05:17;;;;;;;10.95;3.75;;;14.50;99.90;;;;;;5073699;28;20177;-86
2023/05/24 11:07:43;;;;;;;10.32;3.45;;;14.40;99.90;;;;;;5089476;28;20207;-85
2023/05/24 11:10:28;;;;;;;10.52;3.67;;;14.20;99.90;;;;;;5089510;28;20177;-85
2023/05/24 11:12:59;;;;;;;11.73;3.67;;;14.00;99.90;;;;;;5089044;28;20169;-85
2023/05/24 11:15:25;;;;;;;11.02;3.47;;;13.90;99.90;;;;;;5089427;28;20566;-83
2023/05/24 11:18:12;;;;;;;8.07;3.40;;;13.80;99.90;;;;;;5071788;28;20673;-83
2023/05/24 11:20:40;;;;;;;17.83;3.97;;;13.80;99.90;;;;;;5073373;28;20199;-84
2023/05/24 11:23:10;;;;;;;11.00;3.47;;;13.90;99.90;;;;;;5084750;28;20315;-85
2023/05/24 11:25:37;;;;;;;13.52;3.50;;;13.80;99.90;;;;;;5077864;28;20284;-83
2023/05/24 11:28:07;;;;;;;10.82;3.20;;;13.80;99.90;;;;;;5078231;28;20172;-85
2023/05/24 11:30:44;;;;;;;10.88;3.17;;;13.70;99.90;;;;;;5092628;28;20173;-84
2023/05/24 11:33:19;;;;;;;13.43;4.53;;;13.70;99.90;;;;;;5081877;28;20188;-82
2023/05/24 11:35:46;;;;;;;11.48;3.88;;;13.80;99.90;;;;;;5088785;28;20183;-81
2023/05/24 11:38:13;;;;;;;13.68;3.78;;;13.80;99.90;;;;;;5073709;28;20550;-83
2023/05/24 11:40:43;;;;;;;8.55;3.28;;;13.80;99.90;;;;;;5073601;28;20196;-82
2023/05/24 11:43:13;;;;;;;7.63;2.95;;;13.80;99.90;;;;;;5073121;28;20211;-82
2023/05/24 11:45:41;;;;;;;8.85;2.97;;;13.80;99.90;;;;;;5088947;28;20219;-81
2023/05/24 11:48:09;;;;;;;14.07;3.80;;;13.90;99.90;;;;;;5088697;28;20189;-82
2023/05/24 11:50:45;;;;;;;10.07;3.20;;;13.90;99.90;;;;;;5073140;28;20169;-84
2023/05/24 11:53:16;;;;;;;7.53;2.90;;;13.90;99.90;;;;;;5073304;28;20179;-83
2023/05/24 11:55:42;;;;;;;6.53;2.70;;;13.90;99.90;;;;;;5073512;28;20531;-82
2023/05/24 11:58:25;;;;;;;8.45;2.92;;;13.70;99.90;;;;;;5073413;28;20184;-81
2023/05/24 12:00:51;;;;;;;10.40;3.20;;;13.70;99.90;;;;;;5073259;28;20198;-82
2023/05/24 12:03:17;;;;;;;9.10;3.00;;;13.70;99.90;;;;;;5073475;28;20201;-84
2023/05/24 12:05:43;;;;;;;11.35;3.40;;;13.80;99.90;;;;;;5073166;28;20181;-84
2023/05/24 12:08:14;;;;;;;14.43;3.38;;;13.70;99.90;;;;;;5088956;28;20511;-84
2023/05/24 12:10:41;;;;;;;15.25;4.35;;;13.60;99.90;;;;;;5075079;28;20206;-84
2023/05/24 12:13:28;;;;;;;11.43;3.45;;;13.60;99.90;;;;;;5076448;28;20174;-82
2023/05/24 12:15:54;;;;;;;16.17;4.43;;;13.70;99.90;;;;;;5076760;28;20165;-86
2023/05/24 12:18:22;;;;;;;12.00;3.92;;;13.70;99.90;;;;;;5076741;28;20180;-87
2023/05/24 12:20:49;;;;;;;13.43;3.85;;;13.70;99.90;;;;;;5092481;28;20200;-85
2023/05/24 12:23:22;;;;;;;13.82;4.13;;;13.60;99.90;;;;;;5076769;28;20362;-85
2023/05/24 12:25:48;;;;;;;16.48;4.05;;;13.60;99.90;;;;;;5092160;28;20615;-85
2023/05/24 12:28:15;;;;;;;12.55;4.07;;;13.70;99.90;;;;;;5092443;28;20185;-86
2023/05/24 12:30:43;;;;;;;10.82;3.88;;;13.80;99.90;;;;;;5092242;28;20181;-84
2023/05/24 12:33:10;;;;;;;12.38;3.60;;;13.70;99.90;;;;;;5091966;28;20193;-85
2023/05/24 12:35:41;;;;;;;12.98;3.60;;;13.80;99.90;;;;;;5091218;28;20209;-84
2023/05/24 12:38:10;;;;;;;13.85;3.70;;;13.80;99.90;;;;;;5091932;28;20177;-85
2023/05/24 12:40:36;;;;;;;10.13;3.55;;;13.90;99.90;;;;;;5091069;28;20630;-84
2023/05/24 12:43:06;;;;;;;10.65;4.40;;;13.90;99.90;;;;;;5076272;28;20173;-84
2023/05/24 12:45:32;;;;;;;11.45;3.55;;;13.90;99.90;;;;;;5091073;28;20177;-85
2023/05/24 12:48:01;;;;;;;10.52;3.75;;;13.90;99.90;;;;;;5076434;28;20170;-83